Time,TemperatureF,DewpointF,PressureIn,WindDirection,WindDirectionDegrees,WindSpeedMPH,WindSpeedGustMPH,Humidity,HourlyPrecipIn,Conditions,Clouds,dailyrainin,SoftwareType,DateUTC
2013-03-20 00:00:00,46.7,20.5,29.97,North,8,0.0,0.0,35,0.00,,SKC,0.00,VWS V14.01,2013-03-20 04:00:00,
2013-03-20 00:05:00,46.5,20.3,29.97,North,8,0.0,0.0,35,0.00,,SKC,0.00,VWS V14.01,2013-03-20 04:05:00,
2013-03-20 00:10:00,46.2,19.4,29.97,North,8,0.0,0.0,34,0.00,,SKC,0.00,VWS V14.01,2013-03-20 04:10:00,
2013-03-20 00:15:00,46.0,19.9,29.97,North,8,0.0,0.0,35,0.00,,SKC,0.00,VWS V14.01,2013-03-20 04:15:00,
2013-03-20 00:20:00,45.5,20.1,29.98,North,8,0.0,0.0,36,0.00,,SKC,0.00,VWS V14.01,2013-03-20 04:20:00,
2013-03-20 00:25:00,45.2,19.9,29.98,North,8,0.0,0.0,36,0.00,,SKC,0.00,VWS V14.01,2013-03-20 04:25:00,
2013-03-20 00:30:00,44.9,19.6,29.98,North,8,0.0,0.0,36,0.00,,SKC,0.00,VWS V14.01,2013-03-20 04:30:00,
2013-03-20 00:35:00,44.6,21.2,29.98,North,8,0.0,0.0,39,0.00,,SKC,0.00,VWS V14.01,2013-03-20 04:35:00,
2013-03-20 00:40:00,44.3,22.1,29.98,North,8,0.0,0.0,41,0.00,,SKC,0.00,VWS V14.01,2013-03-20 04:40:00,
2013-03-20 00:45:00,44.1,20.7,29.98,North,8,0.0,0.0,39,0.00,,SKC,0.00,VWS V14.01,2013-03-20 04:45:00,
2013-03-20 00:50:00,43.9,21.2,29.98,North,8,0.0,0.0,40,0.00,,SKC,0.00,VWS V14.01,2013-03-20 04:50:00,
2013-03-20 00:55:00,43.8,19.9,29.98,NE,42,0.0,2.0,38,0.00,,SKC,0.00,VWS V14.01,2013-03-20 04:55:00,
2013-03-20 01:00:00,43.6,19.7,29.98,NE,42,0.0,2.0,38,0.00,,SKC,0.00,VWS V14.01,2013-03-20 05:00:00,
2013-03-20 01:05:00,43.6,19.1,29.97,NE,42,0.0,0.0,37,0.00,,SKC,0.00,VWS V14.01,2013-03-20 05:05:00,
2013-03-20 01:10:00,43.5,19.0,29.97,NE,42,0.0,0.0,37,0.00,,SKC,0.00,VWS V14.01,2013-03-20 05:10:00,
2013-03-20 01:15:00,43.3,18.2,29.97,NE,42,0.0,0.0,36,0.00,,SKC,0.00,VWS V14.01,2013-03-20 05:15:00,
2013-03-20 01:20:00,43.3,18.2,29.97,ENE,65,0.0,2.0,36,0.00,,SKC,0.00,VWS V14.01,2013-03-20 05:20:00,
2013-03-20 01:25:00,43.3,17.5,29.97,ENE,65,0.0,2.0,35,0.00,,SKC,0.00,VWS V14.01,2013-03-20 05:25:00,
2013-03-20 01:30:00,43.3,17.5,29.97,ENE,65,0.0,2.0,35,0.00,,SKC,0.00,VWS V14.01,2013-03-20 05:30:00,
2013-03-20 01:35:00,43.3,16.8,29.97,NNE,24,0.0,1.0,34,0.00,,SKC,0.00,VWS V14.01,2013-03-20 05:35:00,
2013-03-20 01:40:00,43.6,15.7,29.97,NNE,24,0.0,1.0,32,0.00,,SKC,0.00,VWS V14.01,2013-03-20 05:40:00,
2013-03-20 01:45:00,43.8,15.9,29.97,NNE,24,0.0,1.0,32,0.00,,SKC,0.00,VWS V14.01,2013-03-20 05:45:00,
2013-03-20 01:50:00,44.1,15.4,29.96,NNE,24,0.0,2.0,31,0.00,,SKC,0.00,VWS V14.01,2013-03-20 05:50:00,
2013-03-20 01:55:00,44.2,14.8,29.96,NNE,17,0.0,3.0,30,0.00,,SKC,0.00,VWS V14.01,2013-03-20 05:55:00,
2013-03-20 02:00:00,44.5,14.2,29.96,North,4,3.0,4.0,29,0.00,,SKC,0.00,VWS V14.01,2013-03-20 06:00:00,
2013-03-20 02:05:00,44.5,15.0,29.96,North,4,0.0,0.0,30,0.00,,SKC,0.00,VWS V14.01,2013-03-20 06:05:00,
2013-03-20 02:10:00,44.5,14.2,29.96,North,0,0.0,5.0,29,0.00,,SKC,0.00,VWS V14.01,2013-03-20 06:10:00,
2013-03-20 02:15:00,44.5,14.2,29.96,NE,37,0.0,5.0,29,0.00,,SKC,0.00,VWS V14.01,2013-03-20 06:15:00,
2013-03-20 02:20:00,44.5,14.2,29.95,NE,38,0.0,5.0,29,0.00,,SKC,0.00,VWS V14.01,2013-03-20 06:20:00,
2013-03-20 02:25:00,44.5,13.4,29.95,NE,35,0.0,5.0,28,0.00,,SKC,0.00,VWS V14.01,2013-03-20 06:25:00,
2013-03-20 02:30:00,44.6,13.5,29.95,NE,40,0.0,5.0,28,0.00,,SKC,0.00,VWS V14.01,2013-03-20 06:30:00,
2013-03-20 02:35:00,44.8,14.5,29.95,NE,41,0.0,0.0,29,0.00,,SKC,0.00,VWS V14.01,2013-03-20 06:35:00,
2013-03-20 02:40:00,44.8,13.7,29.95,NE,41,0.0,1.0,28,0.00,,SKC,0.00,VWS V14.01,2013-03-20 06:40:00,
2013-03-20 02:45:00,44.8,13.7,29.95,North,359,0.0,3.0,28,0.00,,SKC,0.00,VWS V14.01,2013-03-20 06:45:00,
2013-03-20 02:50:00,44.8,13.7,29.95,North,354,0.0,3.0,28,0.00,,SKC,0.00,VWS V14.01,2013-03-20 06:50:00,
2013-03-20 02:55:00,44.8,13.7,29.95,North,11,0.0,3.0,28,0.00,,SKC,0.00,VWS V14.01,2013-03-20 06:55:00,
2013-03-20 03:00:00,44.9,13.8,29.95,NNE,24,0.0,5.0,28,0.00,,SKC,0.00,VWS V14.01,2013-03-20 07:00:00,
2013-03-20 03:05:00,44.8,13.7,29.95,NNE,25,0.0,0.0,28,0.00,,SKC,0.00,VWS V14.01,2013-03-20 07:05:00,
2013-03-20 03:10:00,44.8,13.7,29.95,NE,56,1.0,2.0,28,0.00,,SKC,0.00,VWS V14.01,2013-03-20 07:10:00,
2013-03-20 03:15:00,44.8,13.7,29.95,North,6,0.0,4.0,28,0.00,,SKC,0.00,VWS V14.01,2013-03-20 07:15:00,
2013-03-20 03:20:00,44.8,14.5,29.95,North,6,0.0,4.0,29,0.00,,SKC,0.00,VWS V14.01,2013-03-20 07:20:00,
2013-03-20 03:25:00,44.6,15.1,29.95,North,7,0.0,4.0,30,0.00,,SKC,0.00,VWS V14.01,2013-03-20 07:25:00,
2013-03-20 03:30:00,44.5,14.2,29.95,North,7,0.0,4.0,29,0.00,,SKC,0.00,VWS V14.01,2013-03-20 07:30:00,
2013-03-20 03:35:00,44.3,14.8,29.95,North,7,0.0,0.0,30,0.00,,SKC,0.00,VWS V14.01,2013-03-20 07:35:00,
2013-03-20 03:40:00,44.2,14.8,29.95,North,7,0.0,2.0,30,0.00,,SKC,0.00,VWS V14.01,2013-03-20 07:40:00,
2013-03-20 03:45:00,43.9,14.5,29.95,North,7,0.0,2.0,30,0.00,,SKC,0.00,VWS V14.01,2013-03-20 07:45:00,
2013-03-20 03:50:00,43.6,15.0,29.95,North,7,0.0,2.0,31,0.00,,SKC,0.00,VWS V14.01,2013-03-20 07:50:00,
2013-03-20 03:55:00,43.5,15.6,29.95,North,7,0.0,2.0,32,0.00,,SKC,0.00,VWS V14.01,2013-03-20 07:55:00,
2013-03-20 04:00:00,43.2,14.6,29.95,North,7,0.0,2.0,31,0.00,,SKC,0.00,VWS V14.01,2013-03-20 08:00:00,
2013-03-20 04:05:00,43.1,13.8,29.95,North,1,0.0,2.0,30,0.00,,SKC,0.00,VWS V14.01,2013-03-20 08:05:00,
2013-03-20 04:10:00,43.2,13.9,29.95,NNE,13,2.0,4.0,30,0.00,,SKC,0.00,VWS V14.01,2013-03-20 08:10:00,
2013-03-20 04:15:00,43.5,12.6,29.95,NE,37,0.0,4.0,28,0.00,,SKC,0.00,VWS V14.01,2013-03-20 08:15:00,
2013-03-20 04:20:00,43.9,12.1,29.94,NNE,32,0.0,4.0,27,0.00,,SKC,0.00,VWS V14.01,2013-03-20 08:20:00,
2013-03-20 04:25:00,44.1,13.1,29.94,NNE,27,1.0,4.0,28,0.00,,SKC,0.00,VWS V14.01,2013-03-20 08:25:00,
2013-03-20 04:30:00,44.2,12.4,29.94,North,6,0.0,4.0,27,0.00,,SKC,0.00,VWS V14.01,2013-03-20 08:30:00,
2013-03-20 04:35:00,44.2,13.2,29.94,North,8,0.0,0.0,28,0.00,,SKC,0.00,VWS V14.01,2013-03-20 08:35:00,
2013-03-20 04:40:00,44.2,13.2,29.94,North,10,0.0,1.0,28,0.00,,SKC,0.00,VWS V14.01,2013-03-20 08:40:00,
2013-03-20 04:45:00,44.1,12.3,29.94,North,10,0.0,1.0,27,0.00,,SKC,0.00,VWS V14.01,2013-03-20 08:45:00,
2013-03-20 04:50:00,43.9,12.1,29.94,NNE,21,0.0,3.0,27,0.00,,SKC,0.00,VWS V14.01,2013-03-20 08:50:00,
2013-03-20 04:55:00,43.9,11.2,29.94,NNE,21,0.0,3.0,26,0.00,,SKC,0.00,VWS V14.01,2013-03-20 08:55:00,
2013-03-20 05:00:00,43.8,12.8,29.94,NNE,21,0.0,3.0,28,0.00,,SKC,0.00,VWS V14.01,2013-03-20 09:00:00,
2013-03-20 05:05:00,43.6,11.8,29.94,North,359,0.0,1.0,27,0.00,,SKC,0.00,VWS V14.01,2013-03-20 09:05:00,
2013-03-20 05:10:00,43.5,12.6,29.94,North,0,0.0,2.0,28,0.00,,SKC,0.00,VWS V14.01,2013-03-20 09:10:00,
2013-03-20 05:15:00,43.5,12.6,29.94,North,0,0.0,2.0,28,0.00,,SKC,0.00,VWS V14.01,2013-03-20 09:15:00,
2013-03-20 05:20:00,43.3,11.6,29.94,North,4,0.0,2.0,27,0.00,,SKC,0.00,VWS V14.01,2013-03-20 09:20:00,
2013-03-20 05:25:00,43.5,11.8,29.94,North,6,0.0,3.0,27,0.00,,SKC,0.00,VWS V14.01,2013-03-20 09:25:00,
2013-03-20 05:29:00,43.6,11.8,29.94,NNE,24,0.0,3.0,27,0.00,,SKC,0.00,VWS V14.01,2013-03-20 09:29:00,
2013-03-20 05:34:00,43.8,12.8,29.95,North,3,2.0,3.0,28,0.00,,SKC,0.00,VWS V14.01,2013-03-20 09:34:00,
2013-03-20 05:39:00,43.9,12.9,29.95,North,6,0.0,3.0,28,0.00,,SKC,0.00,VWS V14.01,2013-03-20 09:39:00,
2013-03-20 05:44:00,44.1,11.4,29.95,NNE,25,1.0,3.0,26,0.00,,SKC,0.00,VWS V14.01,2013-03-20 09:44:00,
2013-03-20 05:49:00,44.2,11.5,29.95,North,0,1.0,3.0,26,0.00,,SKC,0.00,VWS V14.01,2013-03-20 09:49:00,
2013-03-20 05:54:00,44.3,10.7,29.95,North,11,1.0,3.0,25,0.00,,SKC,0.00,VWS V14.01,2013-03-20 09:54:00,
2013-03-20 05:59:00,44.3,11.6,29.95,NNE,27,0.0,3.0,26,0.00,,SKC,0.00,VWS V14.01,2013-03-20 09:59:00,
2013-03-20 06:04:00,44.3,11.6,29.95,NNE,30,0.0,1.0,26,0.00,,SKC,0.00,VWS V14.01,2013-03-20 10:04:00,
2013-03-20 06:09:00,44.2,11.5,29.95,ENE,59,1.0,2.0,26,0.00,,SKC,0.00,VWS V14.01,2013-03-20 10:09:00,
2013-03-20 06:14:00,44.2,10.6,29.95,North,349,2.0,3.0,25,0.00,,SKC,0.00,VWS V14.01,2013-03-20 10:14:00,
2013-03-20 06:19:00,44.2,12.4,29.97,NNE,17,0.0,3.0,27,0.00,,SKC,0.00,VWS V14.01,2013-03-20 10:19:00,
2013-03-20 06:24:00,44.1,12.3,29.97,NNE,17,2.0,3.0,27,0.00,,SKC,0.00,VWS V14.01,2013-03-20 10:24:00,
2013-03-20 06:29:00,43.9,11.2,29.97,NNE,24,0.0,3.0,26,0.00,,SKC,0.00,VWS V14.01,2013-03-20 10:29:00,
2013-03-20 06:34:00,43.9,11.2,29.98,East,82,0.0,2.0,26,0.00,,SKC,0.00,VWS V14.01,2013-03-20 10:34:00,
2013-03-20 06:39:00,43.9,11.2,29.98,NNE,23,0.0,4.0,26,0.00,,SKC,0.00,VWS V14.01,2013-03-20 10:39:00,
2013-03-20 06:44:00,43.9,12.1,29.98,NE,41,0.0,4.0,27,0.00,,SKC,0.00,VWS V14.01,2013-03-20 10:44:00,
2013-03-20 06:49:00,43.8,12.0,29.98,ENE,68,0.0,4.0,27,0.00,,SKC,0.00,VWS V14.01,2013-03-20 10:49:00,
2013-03-20 06:54:00,43.6,11.0,29.98,North,359,0.0,4.0,26,0.00,,SKC,0.00,VWS V14.01,2013-03-20 10:54:00,
2013-03-20 06:59:00,43.6,11.0,29.98,North,0,2.0,4.0,26,0.00,,SKC,0.00,VWS V14.01,2013-03-20 10:59:00,
2013-03-20 07:04:00,43.6,11.8,29.99,North,0,0.0,1.0,27,0.00,,SKC,0.00,VWS V14.01,2013-03-20 11:04:00,
2013-03-20 07:09:00,43.6,11.8,29.99,North,0,1.0,2.0,27,0.00,,SKC,0.00,VWS V14.01,2013-03-20 11:09:00,
2013-03-20 07:14:00,43.5,11.8,29.99,NE,40,1.0,3.0,27,0.00,,SKC,0.00,VWS V14.01,2013-03-20 11:14:00,
2013-03-20 07:19:00,43.5,11.8,29.99,NE,42,1.0,3.0,27,0.00,,SKC,0.00,VWS V14.01,2013-03-20 11:19:00,
2013-03-20 07:24:00,43.6,11.8,29.99,NNE,27,3.0,3.0,27,0.00,,SKC,0.00,VWS V14.01,2013-03-20 11:24:00,
2013-03-20 07:29:00,43.6,11.0,29.99,NNE,30,0.0,5.0,26,0.00,,SKC,0.00,VWS V14.01,2013-03-20 11:29:00,
2013-03-20 07:34:00,43.6,11.0,29.99,NNE,31,1.0,5.0,26,0.00,,SKC,0.00,VWS V14.01,2013-03-20 11:34:00,
2013-03-20 07:39:00,43.8,10.3,29.99,North,8,1.0,6.0,25,0.00,,SKC,0.00,VWS V14.01,2013-03-20 11:39:00,
2013-03-20 07:44:00,43.9,11.2,29.99,NE,35,2.0,6.0,26,0.00,,SKC,0.00,VWS V14.01,2013-03-20 11:44:00,
2013-03-20 07:49:00,43.9,11.2,30.00,NE,47,0.0,6.0,26,0.00,,SKC,0.00,VWS V14.01,2013-03-20 11:49:00,
2013-03-20 07:54:00,43.9,11.2,30.00,NE,38,0.0,6.0,26,0.00,,SKC,0.00,VWS V14.01,2013-03-20 11:54:00,
2013-03-20 07:59:00,43.9,11.2,30.00,NE,44,1.0,6.0,26,0.00,,SKC,0.00,VWS V14.01,2013-03-20 11:59:00,
2013-03-20 08:04:00,43.9,11.2,30.01,ESE,109,2.0,2.0,26,0.00,,SKC,0.00,VWS V14.01,2013-03-20 12:04:00,
2013-03-20 08:09:00,43.8,11.2,30.01,NE,42,0.0,3.0,26,0.00,,SKC,0.00,VWS V14.01,2013-03-20 12:09:00,
2013-03-20 08:14:00,43.9,12.1,30.01,NNE,32,1.0,3.0,27,0.00,,SKC,0.00,VWS V14.01,2013-03-20 12:14:00,
2013-03-20 08:19:00,43.9,12.9,30.02,NNE,32,0.0,3.0,28,0.00,,SKC,0.00,VWS V14.01,2013-03-20 12:19:00,
2013-03-20 08:24:00,43.9,12.1,30.02,NE,34,3.0,3.0,27,0.00,,SKC,0.00,VWS V14.01,2013-03-20 12:24:00,
2013-03-20 08:29:00,43.9,12.1,30.02,NNE,32,0.0,3.0,27,0.00,,SKC,0.00,VWS V14.01,2013-03-20 12:29:00,
2013-03-20 08:34:00,44.1,12.3,30.03,NE,56,0.0,1.0,27,0.00,,SKC,0.00,VWS V14.01,2013-03-20 12:34:00,
2013-03-20 08:39:00,44.1,11.4,30.03,NE,40,0.0,5.0,26,0.00,,SKC,0.00,VWS V14.01,2013-03-20 12:39:00,
2013-03-20 08:44:00,44.2,13.2,30.03,NE,40,0.0,5.0,28,0.00,,SKC,0.00,VWS V14.01,2013-03-20 12:44:00,
2013-03-20 08:49:00,44.3,13.3,30.03,NE,48,0.0,5.0,28,0.00,,SKC,0.00,VWS V14.01,2013-03-20 12:49:00,
2013-03-20 08:54:00,44.3,14.8,30.03,ENE,61,0.0,5.0,30,0.00,,SKC,0.00,VWS V14.01,2013-03-20 12:54:00,
2013-03-20 08:59:00,44.5,13.4,30.03,NE,42,1.0,5.0,28,0.00,,SKC,0.00,VWS V14.01,2013-03-20 12:59:00,
2013-03-20 09:04:00,44.5,13.4,30.03,NE,34,0.0,0.0,28,0.00,,SKC,0.00,VWS V14.01,2013-03-20 13:04:00,
2013-03-20 09:09:00,44.6,13.5,30.03,NE,35,0.0,1.0,28,0.00,,SKC,0.00,VWS V14.01,2013-03-20 13:09:00,
2013-03-20 09:14:00,44.8,13.7,30.03,NE,35,1.0,2.0,28,0.00,,SKC,0.00,VWS V14.01,2013-03-20 13:14:00,
2013-03-20 09:19:00,44.9,11.2,30.03,NNE,30,2.0,3.0,25,0.00,,SKC,0.00,VWS V14.01,2013-03-20 13:19:00,
2013-03-20 09:24:00,45.1,12.3,30.03,NNE,30,0.0,3.0,26,0.00,,SKC,0.00,VWS V14.01,2013-03-20 13:24:00,
2013-03-20 09:29:00,45.1,14.0,30.03,NNE,30,0.0,3.0,28,0.00,,SKC,0.00,VWS V14.01,2013-03-20 13:29:00,
2013-03-20 09:34:00,45.2,14.1,30.03,NNE,30,1.0,1.0,28,0.00,,SKC,0.00,VWS V14.01,2013-03-20 13:34:00,
2013-03-20 09:39:00,45.2,13.2,30.03,ESE,104,1.0,3.0,27,0.00,,SKC,0.00,VWS V14.01,2013-03-20 13:39:00,
2013-03-20 09:44:00,45.2,12.4,30.03,NW,305,0.0,3.0,26,0.00,,SKC,0.00,VWS V14.01,2013-03-20 13:44:00,
2013-03-20 09:49:00,45.4,12.5,30.03,North,359,0.0,3.0,26,0.00,,SKC,0.00,VWS V14.01,2013-03-20 13:49:00,
2013-03-20 09:54:00,45.5,12.6,30.03,North,359,0.0,3.0,26,0.00,,SKC,0.00,VWS V14.01,2013-03-20 13:54:00,
2013-03-20 09:59:00,45.7,13.6,30.03,North,359,0.0,3.0,27,0.00,,SKC,0.00,VWS V14.01,2013-03-20 13:59:00,
2013-03-20 10:04:00,45.8,13.7,30.03,North,359,0.0,0.0,27,0.00,,SKC,0.00,VWS V14.01,2013-03-20 14:04:00,
2013-03-20 10:09:00,45.8,11.1,30.03,North,359,0.0,1.0,24,0.00,,SKC,0.00,VWS V14.01,2013-03-20 14:09:00,
2013-03-20 10:14:00,46.0,11.2,30.03,North,359,0.0,1.0,24,0.00,,SKC,0.00,VWS V14.01,2013-03-20 14:14:00,
2013-03-20 10:19:00,46.2,10.5,30.04,NNE,18,0.0,1.0,23,0.00,,SKC,0.00,VWS V14.01,2013-03-20 14:19:00,
2013-03-20 10:24:00,46.4,12.5,30.04,NE,38,0.0,1.0,25,0.00,,SKC,0.00,VWS V14.01,2013-03-20 14:24:00,
2013-03-20 10:29:00,46.8,11.9,30.04,NW,312,0.0,2.0,24,0.00,,SKC,0.00,VWS V14.01,2013-03-20 14:29:00,
2013-03-20 10:34:00,47.3,12.4,30.04,NW,312,0.0,0.0,24,0.00,,SKC,0.00,VWS V14.01,2013-03-20 14:34:00,
2013-03-20 10:39:00,47.6,11.6,30.04,NW,312,1.0,1.0,23,0.00,,SKC,0.00,VWS V14.01,2013-03-20 14:39:00,
2013-03-20 10:44:00,47.7,10.7,30.04,NW,312,0.0,1.0,22,0.00,,SKC,0.00,VWS V14.01,2013-03-20 14:44:00,
2013-03-20 10:49:00,48.2,14.0,30.04,NW,312,0.0,1.0,25,0.00,,SKC,0.00,VWS V14.01,2013-03-20 14:49:00,
2013-03-20 10:54:00,48.6,12.5,30.04,NW,312,0.0,1.0,23,0.00,,SKC,0.00,VWS V14.01,2013-03-20 14:54:00,
2013-03-20 10:59:00,49.1,13.9,30.04,NW,312,0.0,1.0,24,0.00,,SKC,0.00,VWS V14.01,2013-03-20 14:59:00,
2013-03-20 11:04:00,49.4,15.1,30.03,NW,312,0.0,0.0,25,0.00,,SKC,0.00,VWS V14.01,2013-03-20 15:04:00,
2013-03-20 11:09:00,49.8,14.5,30.03,NW,312,0.0,1.0,24,0.00,,SKC,0.00,VWS V14.01,2013-03-20 15:09:00,
2013-03-20 11:14:00,50.2,11.8,30.03,NW,312,0.0,1.0,21,0.00,,SKC,0.00,VWS V14.01,2013-03-20 15:14:00,
2013-03-20 11:19:00,50.4,11.9,30.04,NW,312,0.0,1.0,21,0.00,,SKC,0.00,VWS V14.01,2013-03-20 15:19:00,
2013-03-20 11:24:00,50.5,16.0,30.04,NW,312,0.0,2.0,25,0.00,,SKC,0.00,VWS V14.01,2013-03-20 15:24:00,
2013-03-20 11:29:00,50.7,13.3,30.04,NW,312,0.0,2.0,22,0.00,,SKC,0.00,VWS V14.01,2013-03-20 15:29:00,
2013-03-20 11:34:00,50.8,13.3,30.04,NW,313,1.0,1.0,22,0.00,,SKC,0.00,VWS V14.01,2013-03-20 15:34:00,
2013-03-20 11:39:00,51.0,11.4,30.04,NW,313,0.0,1.0,20,0.00,,SKC,0.00,VWS V14.01,2013-03-20 15:39:00,
2013-03-20 11:44:00,51.3,15.8,30.04,NW,311,0.0,2.0,24,0.00,,SKC,0.00,VWS V14.01,2013-03-20 15:44:00,
2013-03-20 11:49:00,51.9,16.3,30.03,West,265,0.0,2.0,24,0.00,,SKC,0.00,VWS V14.01,2013-03-20 15:49:00,
2013-03-20 11:54:00,52.5,13.7,30.03,WSW,258,0.0,2.0,21,0.00,,SKC,0.00,VWS V14.01,2013-03-20 15:54:00,
2013-03-20 11:59:00,53.1,14.2,30.03,North,357,0.0,3.0,21,0.00,,SKC,0.00,VWS V14.01,2013-03-20 15:59:00,
2013-03-20 12:04:00,53.5,13.4,30.02,North,356,0.0,0.0,20,0.00,,SKC,0.00,VWS V14.01,2013-03-20 16:04:00,
2013-03-20 12:09:00,53.9,13.8,30.02,NNW,328,0.0,1.0,20,0.00,,SKC,0.00,VWS V14.01,2013-03-20 16:09:00,
2013-03-20 12:14:00,54.1,13.9,30.02,South,182,0.0,2.0,20,0.00,,SKC,0.00,VWS V14.01,2013-03-20 16:14:00,
2013-03-20 12:19:00,54.5,16.5,30.01,South,174,0.0,2.0,22,0.00,,SKC,0.00,VWS V14.01,2013-03-20 16:19:00,
2013-03-20 12:24:00,54.8,14.5,30.01,East,93,0.0,2.0,20,0.00,,SKC,0.00,VWS V14.01,2013-03-20 16:24:00,
2013-03-20 12:29:00,55.0,13.5,30.01,West,275,1.0,3.0,19,0.00,,SKC,0.00,VWS V14.01,2013-03-20 16:29:00,
2013-03-20 12:34:00,55.0,12.3,29.99,SSW,213,2.0,2.0,18,0.00,,SKC,0.00,VWS V14.01,2013-03-20 16:34:00,
2013-03-20 12:39:00,55.1,15.9,29.99,South,189,0.0,2.0,21,0.00,,SKC,0.00,VWS V14.01,2013-03-20 16:39:00,
2013-03-20 12:44:00,55.6,15.2,29.99,South,184,0.0,2.0,20,0.00,,SKC,0.00,VWS V14.01,2013-03-20 16:44:00,
2013-03-20 12:49:00,56.0,15.5,29.98,South,184,0.0,2.0,20,0.00,,SKC,0.00,VWS V14.01,2013-03-20 16:49:00,
2013-03-20 12:54:00,56.5,17.1,29.98,South,178,0.0,2.0,21,0.00,,SKC,0.00,VWS V14.01,2013-03-20 16:54:00,
2013-03-20 12:59:00,57.0,18.5,29.98,WNW,299,0.0,3.0,22,0.00,,SKC,0.00,VWS V14.01,2013-03-20 16:59:00,
2013-03-20 13:04:00,57.5,17.9,29.97,NNE,30,1.0,1.0,21,0.00,,SKC,0.00,VWS V14.01,2013-03-20 17:04:00,
2013-03-20 13:09:00,57.5,16.8,29.97,North,359,0.0,2.0,20,0.00,,SKC,0.00,VWS V14.01,2013-03-20 17:09:00,
2013-03-20 13:14:00,57.3,14.2,29.97,North,349,0.0,2.0,18,0.00,,SKC,0.00,VWS V14.01,2013-03-20 17:14:00,
2013-03-20 13:19:00,56.7,16.1,29.96,NE,49,0.0,3.0,20,0.00,,SKC,0.00,VWS V14.01,2013-03-20 17:19:00,
2013-03-20 13:25:00,56.7,19.3,29.96,ENE,64,0.0,3.0,23,0.00,,SKC,0.00,VWS V14.01,2013-03-20 17:25:00,
2013-03-20 13:30:00,57.0,15.2,29.96,ENE,62,0.0,3.0,19,0.00,,SKC,0.00,VWS V14.01,2013-03-20 17:30:00,
2013-03-20 13:35:00,57.2,16.5,29.95,ESE,114,1.0,2.0,20,0.00,,SKC,0.00,VWS V14.01,2013-03-20 17:35:00,
2013-03-20 13:40:00,57.3,15.4,29.95,West,265,1.0,3.0,19,0.00,,SKC,0.00,VWS V14.01,2013-03-20 17:40:00,
2013-03-20 13:45:00,57.3,18.8,29.95,North,354,6.0,6.0,22,0.00,,SKC,0.00,VWS V14.01,2013-03-20 17:45:00,
2013-03-20 13:50:00,57.3,18.8,29.94,SSE,151,0.0,6.0,22,0.00,,SKC,0.00,VWS V14.01,2013-03-20 17:50:00,
2013-03-20 13:54:00,57.5,15.6,29.94,South,185,0.0,6.0,19,0.00,,SKC,0.00,VWS V14.01,2013-03-20 17:54:00,
2013-03-20 13:59:00,57.6,19.1,29.94,South,182,0.0,6.0,22,0.00,,SKC,0.00,VWS V14.01,2013-03-20 17:59:00,
2013-03-20 14:04:00,58.1,17.3,29.92,SW,227,1.0,3.0,20,0.00,,SKC,0.00,VWS V14.01,2013-03-20 18:04:00,
2013-03-20 14:09:00,58.1,18.4,29.92,SSE,164,0.0,3.0,21,0.00,,SKC,0.00,VWS V14.01,2013-03-20 18:09:00,
2013-03-20 14:14:00,58.1,17.3,29.92,South,186,1.0,3.0,20,0.00,,SKC,0.00,VWS V14.01,2013-03-20 18:14:00,
2013-03-20 14:19:00,58.3,16.2,29.91,SE,126,0.0,5.0,19,0.00,,SKC,0.00,VWS V14.01,2013-03-20 18:19:00,
2013-03-20 14:24:00,58.7,20.0,29.91,WSW,253,0.0,5.0,22,0.00,,SKC,0.00,VWS V14.01,2013-03-20 18:24:00,
2013-03-20 14:29:00,59.2,19.3,29.91,North,10,0.0,5.0,21,0.00,,SKC,0.00,VWS V14.01,2013-03-20 18:29:00,
2013-03-20 14:34:00,59.6,19.6,29.89,NNE,27,0.0,1.0,21,0.00,,SKC,0.00,VWS V14.01,2013-03-20 18:34:00,
2013-03-20 14:39:00,59.5,19.6,29.89,ENE,68,0.0,3.0,21,0.00,,SKC,0.00,VWS V14.01,2013-03-20 18:39:00,
2013-03-20 14:44:00,59.6,18.5,29.89,East,95,0.0,3.0,20,0.00,,SKC,0.00,VWS V14.01,2013-03-20 18:44:00,
2013-03-20 14:49:00,60.1,18.9,29.87,SE,141,1.0,3.0,20,0.00,,SKC,0.00,VWS V14.01,2013-03-20 18:49:00,
2013-03-20 14:54:00,59.9,21.0,29.87,SE,141,0.0,3.0,22,0.00,,SKC,0.00,VWS V14.01,2013-03-20 18:54:00,
2013-03-20 14:59:00,60.1,18.9,29.87,North,352,1.0,3.0,20,0.00,,SKC,0.00,VWS V14.01,2013-03-20 18:59:00,
2013-03-20 15:04:00,60.1,18.9,29.85,NW,304,0.0,0.0,20,0.00,,SKC,0.00,VWS V14.01,2013-03-20 19:04:00,
2013-03-20 15:09:00,60.4,19.2,29.85,SSW,208,1.0,3.0,20,0.00,,SKC,0.00,VWS V14.01,2013-03-20 19:09:00,
2013-03-20 15:14:00,60.9,21.8,29.85,South,169,0.0,3.0,22,0.00,,SKC,0.00,VWS V14.01,2013-03-20 19:14:00,
2013-03-20 15:19:00,61.2,21.0,29.84,SSW,202,0.0,5.0,21,0.00,,SKC,0.00,VWS V14.01,2013-03-20 19:19:00,
2013-03-20 15:24:00,61.5,21.2,29.84,South,186,0.0,5.0,21,0.00,,SKC,0.00,VWS V14.01,2013-03-20 19:24:00,
2013-03-20 15:29:00,62.0,24.8,29.84,SE,134,0.0,5.0,24,0.00,,SKC,0.00,VWS V14.01,2013-03-20 19:29:00,
2013-03-20 15:34:00,62.1,20.6,29.83,SSW,192,1.0,3.0,20,0.00,,SKC,0.00,VWS V14.01,2013-03-20 19:34:00,
2013-03-20 15:39:00,61.6,19.0,29.83,NW,313,0.0,4.0,19,0.00,,SKC,0.00,VWS V14.01,2013-03-20 19:39:00,
2013-03-20 15:44:00,61.5,20.1,29.83,SSE,167,1.0,4.0,20,0.00,,SKC,0.00,VWS V14.01,2013-03-20 19:44:00,
2013-03-20 15:49:00,61.5,18.9,29.82,SSW,212,0.0,4.0,19,0.00,,SKC,0.00,VWS V14.01,2013-03-20 19:49:00,
2013-03-20 15:54:00,61.3,19.9,29.82,South,186,0.0,4.0,20,0.00,,SKC,0.00,VWS V14.01,2013-03-20 19:54:00,
2013-03-20 15:59:00,61.5,18.9,29.82,SE,136,1.0,4.0,19,0.00,,SKC,0.00,VWS V14.01,2013-03-20 19:59:00,
2013-03-20 16:04:00,61.6,19.0,29.81,NNW,329,0.0,1.0,19,0.00,,SKC,0.00,VWS V14.01,2013-03-20 20:04:00,
2013-03-20 16:09:00,61.3,18.7,29.81,NNE,28,0.0,5.0,19,0.00,,SKC,0.00,VWS V14.01,2013-03-20 20:09:00,
2013-03-20 16:14:00,61.2,22.1,29.81,South,191,0.0,6.0,22,0.00,,SKC,0.00,VWS V14.01,2013-03-20 20:14:00,
2013-03-20 16:19:00,61.3,21.1,29.80,SE,143,0.0,6.0,21,0.00,,SKC,0.00,VWS V14.01,2013-03-20 20:19:00,
2013-03-20 16:24:00,61.5,20.1,29.80,West,263,0.0,6.0,20,0.00,,SKC,0.00,VWS V14.01,2013-03-20 20:24:00,
2013-03-20 16:29:00,61.5,18.9,29.80,SSW,213,0.0,6.0,19,0.00,,SKC,0.00,VWS V14.01,2013-03-20 20:29:00,
2013-03-20 16:34:00,61.3,18.7,29.79,SSW,202,0.0,2.0,19,0.00,,SKC,0.00,VWS V14.01,2013-03-20 20:34:00,
2013-03-20 16:39:00,61.3,19.9,29.79,NE,41,0.0,2.0,20,0.00,,SKC,0.00,VWS V14.01,2013-03-20 20:39:00,
2013-03-20 16:44:00,61.3,19.9,29.79,ESE,114,0.0,3.0,20,0.00,,SKC,0.00,VWS V14.01,2013-03-20 20:44:00,
2013-03-20 16:49:00,61.3,19.9,29.79,SSW,198,0.0,3.0,20,0.00,,SKC,0.00,VWS V14.01,2013-03-20 20:49:00,
2013-03-20 16:54:00,61.2,18.6,29.79,WNW,282,1.0,3.0,19,0.00,,SKC,0.00,VWS V14.01,2013-03-20 20:54:00,
2013-03-20 16:59:00,60.9,18.4,29.79,ESE,120,0.0,6.0,19,0.00,,SKC,0.00,VWS V14.01,2013-03-20 20:59:00,
2013-03-20 17:04:00,60.4,19.2,29.78,West,274,1.0,3.0,20,0.00,,SKC,0.00,VWS V14.01,2013-03-20 21:04:00,
2013-03-20 17:09:00,60.4,19.2,29.78,North,359,1.0,3.0,20,0.00,,SKC,0.00,VWS V14.01,2013-03-20 21:09:00,
2013-03-20 17:14:00,60.1,18.9,29.78,SE,124,1.0,3.0,20,0.00,,SKC,0.00,VWS V14.01,2013-03-20 21:14:00,
2013-03-20 17:19:00,59.9,17.6,29.77,ESE,107,1.0,8.0,19,0.00,,SKC,0.00,VWS V14.01,2013-03-20 21:19:00,
2013-03-20 17:24:00,59.8,19.8,29.77,SW,227,0.0,8.0,21,0.00,,SKC,0.00,VWS V14.01,2013-03-20 21:24:00,
2013-03-20 17:29:00,59.6,18.5,29.77,SSE,165,0.0,8.0,20,0.00,,SKC,0.00,VWS V14.01,2013-03-20 21:29:00,
2013-03-20 17:34:00,59.3,17.1,29.77,North,8,1.0,2.0,19,0.00,,SKC,0.00,VWS V14.01,2013-03-20 21:34:00,
2013-03-20 17:39:00,58.9,16.7,29.77,ESE,107,0.0,2.0,19,0.00,,SKC,0.00,VWS V14.01,2013-03-20 21:39:00,
2013-03-20 17:44:00,58.4,17.5,29.77,WSW,243,1.0,3.0,20,0.00,,SKC,0.00,VWS V14.01,2013-03-20 21:44:00,
2013-03-20 17:49:00,58.1,17.3,29.76,ESE,113,0.0,3.0,20,0.00,,SKC,0.00,VWS V14.01,2013-03-20 21:49:00,
2013-03-20 17:54:00,57.8,17.0,29.76,South,184,1.0,3.0,20,0.00,,SKC,0.00,VWS V14.01,2013-03-20 21:54:00,
2013-03-20 17:59:00,57.5,16.8,29.76,SSW,206,0.0,6.0,20,0.00,,SKC,0.00,VWS V14.01,2013-03-20 21:59:00,
2013-03-20 18:04:00,57.2,16.5,29.76,South,181,0.0,0.0,20,0.00,,SKC,0.00,VWS V14.01,2013-03-20 22:04:00,
2013-03-20 18:09:00,57.0,17.5,29.76,SSW,208,0.0,6.0,21,0.00,,SKC,0.00,VWS V14.01,2013-03-20 22:09:00,
2013-03-20 18:14:00,56.7,17.2,29.76,SSW,199,0.0,6.0,21,0.00,,SKC,0.00,VWS V14.01,2013-03-20 22:14:00,
2013-03-20 18:19:00,56.5,18.1,29.75,West,280,0.0,6.0,22,0.00,,SKC,0.00,VWS V14.01,2013-03-20 22:19:00,
2013-03-20 18:24:00,56.3,16.9,29.75,SSE,152,0.0,6.0,21,0.00,,SKC,0.00,VWS V14.01,2013-03-20 22:24:00,
2013-03-20 18:29:00,56.0,16.6,29.75,ENE,72,0.0,8.0,21,0.00,,SKC,0.00,VWS V14.01,2013-03-20 22:29:00,
2013-03-20 18:34:00,55.7,17.5,29.75,ESE,120,0.0,0.0,22,0.00,,SKC,0.00,VWS V14.01,2013-03-20 22:34:00,
2013-03-20 18:39:00,55.6,17.4,29.75,NNE,25,0.0,2.0,22,0.00,,SKC,0.00,VWS V14.01,2013-03-20 22:39:00,
2013-03-20 18:44:00,55.3,17.1,29.75,East,82,0.0,2.0,22,0.00,,SKC,0.00,VWS V14.01,2013-03-20 22:44:00,
2013-03-20 18:49:00,55.1,17.0,29.74,SW,226,3.0,3.0,22,0.00,,SKC,0.00,VWS V14.01,2013-03-20 22:49:00,
2013-03-20 18:54:00,55.0,17.9,29.74,SSW,210,3.0,3.0,23,0.00,,SKC,0.00,VWS V14.01,2013-03-20 22:54:00,
2013-03-20 18:59:00,54.7,17.6,29.74,North,11,0.0,3.0,23,0.00,,SKC,0.00,VWS V14.01,2013-03-20 22:59:00,
2013-03-20 19:04:00,54.5,18.5,29.74,NNE,20,0.0,0.0,24,0.00,,SKC,0.00,VWS V14.01,2013-03-20 23:04:00,
2013-03-20 19:09:00,54.4,18.4,29.74,SSE,147,0.0,4.0,24,0.00,,SKC,0.00,VWS V14.01,2013-03-20 23:09:00,
2013-03-20 19:14:00,54.1,19.1,29.74,SE,130,0.0,5.0,25,0.00,,SKC,0.00,VWS V14.01,2013-03-20 23:14:00,
2013-03-20 19:19:00,53.9,18.0,29.73,SSW,208,0.0,7.0,24,0.00,,SKC,0.00,VWS V14.01,2013-03-20 23:19:00,
2013-03-20 19:24:00,53.8,18.8,29.73,South,169,0.0,7.0,25,0.00,,SKC,0.00,VWS V14.01,2013-03-20 23:24:00,
2013-03-20 19:29:00,53.6,18.6,29.73,ESE,106,0.0,7.0,25,0.00,,SKC,0.00,VWS V14.01,2013-03-20 23:29:00,
2013-03-20 19:34:00,53.5,17.6,29.74,SE,131,0.0,2.0,24,0.00,,SKC,0.00,VWS V14.01,2013-03-20 23:34:00,
2013-03-20 19:39:00,53.3,18.4,29.74,SSE,150,0.0,2.0,25,0.00,,SKC,0.00,VWS V14.01,2013-03-20 23:39:00,
2013-03-20 19:44:00,53.2,19.2,29.74,SW,223,0.0,3.0,26,0.00,,SKC,0.00,VWS V14.01,2013-03-20 23:44:00,
2013-03-20 19:49:00,53.1,18.2,29.74,SW,222,0.0,3.0,25,0.00,,SKC,0.00,VWS V14.01,2013-03-20 23:49:00,
2013-03-20 19:54:00,52.9,19.0,29.74,SSE,165,0.0,5.0,26,0.00,,SKC,0.00,VWS V14.01,2013-03-20 23:54:00,
2013-03-20 19:59:00,52.6,18.7,29.74,South,188,0.0,5.0,26,0.00,,SKC,0.00,VWS V14.01,2013-03-20 23:59:00,
2013-03-20 20:04:00,52.5,17.7,29.74,South,175,0.0,0.0,25,0.00,,SKC,0.00,VWS V14.01,2013-03-21 00:04:00,
2013-03-20 20:09:00,52.3,18.5,29.74,South,171,0.0,0.0,26,0.00,,SKC,0.00,VWS V14.01,2013-03-21 00:09:00,
2013-03-20 20:14:00,52.0,19.1,29.74,South,169,0.0,1.0,27,0.00,,SKC,0.00,VWS V14.01,2013-03-21 00:14:00,
2013-03-20 20:19:00,51.9,17.2,29.73,WSW,258,0.0,3.0,25,0.00,,SKC,0.00,VWS V14.01,2013-03-21 00:19:00,
2013-03-20 20:24:00,51.7,17.0,29.73,SSW,193,0.0,3.0,25,0.00,,SKC,0.00,VWS V14.01,2013-03-21 00:24:00,
2013-03-20 20:29:00,51.6,17.0,29.73,WSW,237,0.0,3.0,25,0.00,,SKC,0.00,VWS V14.01,2013-03-21 00:29:00,
2013-03-20 20:34:00,51.6,15.0,29.74,WNW,295,0.0,0.0,23,0.00,,SKC,0.00,VWS V14.01,2013-03-21 00:34:00,
2013-03-20 20:39:00,51.4,13.9,29.74,WNW,298,0.0,1.0,22,0.00,,SKC,0.00,VWS V14.01,2013-03-21 00:39:00,
2013-03-20 20:44:00,51.3,13.8,29.74,SSW,196,0.0,3.0,22,0.00,,SKC,0.00,VWS V14.01,2013-03-21 00:44:00,
2013-03-20 20:49:00,51.3,12.7,29.74,ENE,62,0.0,3.0,21,0.00,,SKC,0.00,VWS V14.01,2013-03-21 00:49:00,
2013-03-20 20:54:00,51.1,12.5,29.74,ENE,62,0.0,3.0,21,0.00,,SKC,0.00,VWS V14.01,2013-03-21 00:54:00,
2013-03-20 20:59:00,51.0,13.5,29.74,North,0,0.0,3.0,22,0.00,,SKC,0.00,VWS V14.01,2013-03-21 00:59:00,
2013-03-20 21:04:00,50.8,14.4,29.75,NNW,337,0.0,2.0,23,0.00,,SKC,0.00,VWS V14.01,2013-03-21 01:04:00,
2013-03-20 21:09:00,50.7,13.3,29.75,ENE,64,0.0,2.0,22,0.00,,SKC,0.00,VWS V14.01,2013-03-21 01:09:00,
2013-03-20 21:14:00,50.7,13.3,29.75,NW,325,0.0,6.0,22,0.00,,SKC,0.00,VWS V14.01,2013-03-21 01:14:00,
2013-03-20 21:19:00,50.7,14.3,29.75,NNE,18,0.0,6.0,23,0.00,,SKC,0.00,VWS V14.01,2013-03-21 01:19:00,
2013-03-20 21:24:00,50.5,14.1,29.75,WSW,239,1.0,6.0,23,0.00,,SKC,0.00,VWS V14.01,2013-03-21 01:24:00,
2013-03-20 21:29:00,50.4,15.0,29.75,NW,315,0.0,6.0,24,0.00,,SKC,0.00,VWS V14.01,2013-03-21 01:29:00,
2013-03-20 21:34:00,50.4,14.0,29.75,East,80,0.0,0.0,23,0.00,,SKC,0.00,VWS V14.01,2013-03-21 01:34:00,
2013-03-20 21:39:00,50.2,14.8,29.75,SW,217,0.0,3.0,24,0.00,,SKC,0.00,VWS V14.01,2013-03-21 01:39:00,
2013-03-20 21:44:00,49.9,14.6,29.75,ESE,102,0.0,3.0,24,0.00,,SKC,0.00,VWS V14.01,2013-03-21 01:44:00,
2013-03-20 21:49:00,49.6,14.3,29.75,ENE,59,0.0,5.0,24,0.00,,SKC,0.00,VWS V14.01,2013-03-21 01:49:00,
2013-03-20 21:54:00,49.5,14.2,29.75,NW,312,1.0,5.0,24,0.00,,SKC,0.00,VWS V14.01,2013-03-21 01:54:00,
2013-03-20 21:59:00,49.4,14.1,29.75,North,8,0.0,5.0,24,0.00,,SKC,0.00,VWS V14.01,2013-03-21 01:59:00,
2013-03-20 22:04:00,49.1,14.8,29.76,North,11,0.0,2.0,25,0.00,,SKC,0.00,VWS V14.01,2013-03-21 02:04:00,
2013-03-20 22:09:00,48.9,14.6,29.76,North,11,0.0,2.0,25,0.00,,SKC,0.00,VWS V14.01,2013-03-21 02:09:00,
2013-03-20 22:14:00,48.6,14.4,29.76,North,4,0.0,2.0,25,0.00,,SKC,0.00,VWS V14.01,2013-03-21 02:14:00,
2013-03-20 22:19:00,48.5,15.2,29.75,North,4,0.0,2.0,26,0.00,,SKC,0.00,VWS V14.01,2013-03-21 02:19:00,
2013-03-20 22:24:00,48.2,14.9,29.75,NNW,330,0.0,2.0,26,0.00,,SKC,0.00,VWS V14.01,2013-03-21 02:24:00,
2013-03-20 22:29:00,48.0,15.6,29.75,NW,311,0.0,2.0,27,0.00,,SKC,0.00,VWS V14.01,2013-03-21 02:29:00,
2013-03-20 22:34:00,47.9,16.4,29.75,WSW,239,0.0,0.0,28,0.00,,SKC,0.00,VWS V14.01,2013-03-21 02:34:00,
2013-03-20 22:39:00,47.7,16.2,29.75,WSW,237,0.0,1.0,28,0.00,,SKC,0.00,VWS V14.01,2013-03-21 02:39:00,
2013-03-20 22:44:00,47.4,15.9,29.75,WSW,239,0.0,1.0,28,0.00,,SKC,0.00,VWS V14.01,2013-03-21 02:44:00,
2013-03-20 22:49:00,47.1,16.5,29.75,ESE,119,3.0,3.0,29,0.00,,SKC,0.00,VWS V14.01,2013-03-21 02:49:00,
2013-03-20 22:54:00,47.1,15.7,29.75,WNW,295,0.0,3.0,28,0.00,,SKC,0.00,VWS V14.01,2013-03-21 02:54:00,
2013-03-20 22:59:00,47.0,16.4,29.75,NW,313,0.0,3.0,29,0.00,,SKC,0.00,VWS V14.01,2013-03-21 02:59:00,
2013-03-20 23:04:00,46.8,16.2,29.75,NW,309,0.0,1.0,29,0.00,,SKC,0.00,VWS V14.01,2013-03-21 03:04:00,
2013-03-20 23:09:00,46.7,16.1,29.75,NW,305,0.0,1.0,29,0.00,,SKC,0.00,VWS V14.01,2013-03-21 03:09:00,
2013-03-20 23:14:00,46.5,16.8,29.75,NNE,28,0.0,4.0,30,0.00,,SKC,0.00,VWS V14.01,2013-03-21 03:14:00,
2013-03-20 23:19:00,46.5,16.8,29.75,NNE,31,0.0,5.0,30,0.00,,SKC,0.00,VWS V14.01,2013-03-21 03:19:00,
2013-03-20 23:24:00,46.5,17.5,29.75,NE,37,0.0,5.0,31,0.00,,SKC,0.00,VWS V14.01,2013-03-21 03:24:00,
2013-03-20 23:29:00,46.4,18.2,29.75,NE,42,0.0,5.0,32,0.00,,SKC,0.00,VWS V14.01,2013-03-21 03:29:00,
2013-03-20 23:34:00,46.1,17.9,29.75,NE,35,2.0,4.0,32,0.00,,SKC,0.00,VWS V14.01,2013-03-21 03:34:00,
2013-03-20 23:39:00,46.0,17.8,29.75,NNE,23,0.0,4.0,32,0.00,,SKC,0.00,VWS V14.01,2013-03-21 03:39:00,
2013-03-20 23:44:00,45.8,19.0,29.75,NNE,30,0.0,5.0,34,0.00,,SKC,0.00,VWS V14.01,2013-03-21 03:44:00,
2013-03-20 23:49:00,45.7,19.6,29.76,NNE,16,0.0,5.0,35,0.00,,SKC,0.00,VWS V14.01,2013-03-21 03:49:00,
2013-03-20 23:55:00,45.5,20.8,29.76,NNE,17,0.0,5.0,37,0.00,,SKC,0.00,VWS V14.01,2013-03-21 03:55:00,